KMTW/MTW METAR and TAF weather

Enter ICAO airport designator
Station Type Date Time Source
KMTW METAR 2019/04/18 10:15 UTC NOAA

KMTW 181015Z AUTO 29006KT 2SM BR OVC003 07/07 A2952 RMK AO2


Station Type Date Time Source
KMTW Decoded METAR 2019/04/18 10:15 UTC NOAA

Manitowoc, Manitowoc County Airport, WI, United States (KMTW) 44-08N 087-41W
Apr 18, 2019 - 06:15 AM EDT / 2019.04.18 1015 UTC
Wind: from the WNW (290 degrees) at 7 MPH (6 KT):0
Visibility: 2 mile(s):0
Sky conditions: overcast
Weather: mist
Temperature: 44 F (7 C)
Dew Point: 44 F (7 C)
Relative Humidity: 100%
Pressure (altimeter): 29.52 in. Hg (999 hPa)
ob: KMTW 181015Z AUTO 29006KT 2SM BR OVC003 07/07 A2952 RMK AO2
cycle: 10

Station Type Date Time Source
KMTW TAF 2019/04/18 10:45 UTC NOAA

TAF
AMD KMTW 180942Z 1810/1906 30004KT 2SM BR OVC003
FM181500 32011G16KT P6SM OVC007
FM181800 33011G18KT P6SM OVC013
FM182200 35012G20KT P6SM OVC024

Example: see airport list